Historique des stations

Station météo de Véretz

Altitude de la station : 70 m







Données météorologiques pour le 21/10/2021
Date
Heure
Températures Humidité Point de rosée Vitesse
du vent
Direction Rafales Windchill Pression Pluviométrie
Cumul
Date
Heure
Températures Humidité Point de rosée Vitesse
du vent
Direction Rafales Windchill Pression Pluviométrie
Cumul
21/10/2021 12:4416.1 °C68 %10.0 °C-ONO56 km/h15.6 1014 hPa-
21/10/2021 12:2915.8 °C71 %10.6 °C-O56 km/h15.6 1014 hPa-
21/10/2021 12:1415.6 °C73 %10.6 °C6 km/hONO56 km/h15.6 1014 hPa-
21/10/2021 12:0015.3 °C75 %11.1 °C2 km/hONO56 km/h15.6 1014 hPa-
21/10/2021 11:4414.7 °C76 %10.6 °C-ONO56 km/h15.0 1014 hPa-
21/10/2021 11:2914.0 °C77 %10.0 °C2 km/hO56 km/h13.9 1015 hPa-
21/10/2021 11:1413.5 °C78 %10.0 °C10 km/hSO56 km/h13.3 1015 hPa-
21/10/2021 10:5913.1 °C79 %9.4 °C-ONO56 km/h13.3 1015 hPa-
21/10/2021 10:4412.6 °C79 %8.9 °C-O56 km/h12.8 1015 hPa-
21/10/2021 10:2912.1 °C80 %8.9 °C-SSO56 km/h12.2 1015 hPa-
21/10/2021 10:1511.6 °C82 %8.3 °C-OSO56 km/h11.7 1014 hPa-
21/10/2021 10:0011.1 °C83 %8.3 °C-O56 km/h11.1 1014 hPa-
21/10/2021 09:4410.6 °C84 %7.8 °C-ONO56 km/h10.6 1014 hPa-
21/10/2021 09:2910.1 °C85 %7.8 °C-SSO56 km/h10.0 1014 hPa-
21/10/2021 09:159.8 °C85 %7.2 °C-OSO56 km/h10.0 1014 hPa-
21/10/2021 09:009.6 °C85 %7.2 °C-O56 km/h9.4 1013 hPa-
21/10/2021 08:449.7 °C84 %7.2 °C-SO56 km/h9.4 1013 hPa-
21/10/2021 08:299.8 °C83 %7.2 °C-O56 km/h10.0 1013 hPa-
21/10/2021 08:149.9 °C82 %7.2 °C-O56 km/h10.0 1013 hPa-
21/10/2021 07:5910.3 °C81 %7.2 °C-OSO56 km/h10.6 1013 hPa-
21/10/2021 07:4410.5 °C80 %7.2 °C-O56 km/h10.6 1013 hPa-
21/10/2021 07:2910.6 °C79 %7.2 °C-ONO56 km/h10.6 1013 hPa-
21/10/2021 07:1510.8 °C79 %7.2 °C-NO56 km/h10.6 1013 hPa-
21/10/2021 07:0010.9 °C79 %7.2 °C-ONO56 km/h11.1 1013 hPa-
21/10/2021 06:4411.0 °C79 %7.2 °C-O56 km/h11.1 1012 hPa-
21/10/2021 06:2911.1 °C79 %7.8 °C-NO56 km/h11.1 1012 hPa-
21/10/2021 06:1411.3 °C79 %7.8 °C-NO56 km/h11.1 1012 hPa-
21/10/2021 05:5911.4 °C79 %7.8 °C3 km/hO56 km/h11.7 1012 hPa-
21/10/2021 05:4411.5 °C79 %7.8 °C-O56 km/h11.7 1011 hPa-
21/10/2021 05:2911.7 °C79 %8.3 °C-ONO56 km/h11.7 1011 hPa-
21/10/2021 05:1511.8 °C78 %8.3 °C-O56 km/h11.7 1010 hPa-
21/10/2021 05:0012.1 °C77 %8.3 °C-NO56 km/h12.2 1010 hPa-
21/10/2021 04:4412.3 °C76 %8.3 °C6 km/hONO56 km/h12.2 1010 hPa-
21/10/2021 04:2912.5 °C76 %8.3 °C26 km/hNO56 km/h12.8 1010 hPa-
21/10/2021 04:1512.6 °C76 %8.3 °C3 km/hSSO56 km/h12.2 1009 hPa-
21/10/2021 03:5912.7 °C75 %8.3 °C18 km/hONO56 km/h12.8 1009 hPa-
21/10/2021 03:4512.7 °C75 %8.3 °C19 km/hONO56 km/h12.2 1009 hPa-
21/10/2021 03:2912.9 °C74 %8.3 °C-O56 km/h12.8 1009 hPa-
21/10/2021 03:1413.1 °C73 %8.3 °C8 km/hONO56 km/h12.8 1008 hPa-
21/10/2021 02:5913.1 °C73 %8.3 °C-NO56 km/h12.8 1008 hPa-
21/10/2021 02:4513.3 °C73 %8.3 °C10 km/hO56 km/h12.2 1007 hPa-
21/10/2021 02:3013.6 °C74 %8.9 °C-NNO56 km/h12.8 1007 hPa-
21/10/2021 02:1413.7 °C74 %8.9 °C-NO55 km/h11.1 1006 hPa-
21/10/2021 01:5913.9 °C72 %8.9 °C-NO55 km/h12.2 1006 hPa-
21/10/2021 01:4513.9 °C72 %8.9 °C27 km/hNO55 km/h12.2 1005 hPa-
21/10/2021 01:3013.7 °C72 %8.9 °C-NO55 km/h12.2 1005 hPa-
21/10/2021 01:1413.4 °C73 %8.9 °C24 km/hNO51 km/h12.2 1004 hPa-
21/10/2021 00:5913.3 °C73 %8.3 °C3 km/hO51 km/h11.7 1004 hPa-
21/10/2021 00:4413.4 °C72 %8.3 °C23 km/hO51 km/h10.6 1004 hPa-
21/10/2021 00:2913.4 °C74 %8.9 °C23 km/hNO51 km/h10.6 1004 hPa-
21/10/2021 00:1413.4 °C77 %9.4 °C16 km/hNO51 km/h10.6 1004 hPa-


Minima :

Température : 9.6 °C
Humidité : 68 %
Point de rosée : 7.2 °C
Vent moyen : 2 km/h
Windchill : 9.4
Pression atm. : 1004 hPa
Maxima :

Température : 16.1 °C
Humidité : 85 %
Point de rosée : 11.1 °C
Vent moyen : 27 km/h
Windchill : 15.6
Pression atm. : 1015 hPa
Rafales max : 56 km/h
Cumul de pluie sur 24H : 0 mm

Véretz est une commune du département Indre-et-Loire (37).
La station météorologique du réseau de l'association la plus proche de Véretz est celle de Reugny
Site du propriétaire de la station : http://www.meteo-veretz.fr/



Icône Facebook Association Météo Centre Icône Twitter Association Météo Centre Icône Chaîne Youtube Association Météo Centre Icône contact Association Météo Centre Icône Insta Association Météo Centre